sensor_id;sensor_type;location;lat;lon;timestamp;pressure;altitude;pressure_sealevel;temperature;humidity
71559;BME280;59382;43.852;25.952;2023-03-31T00:00:50;101177.97;;;11.39;32.05
71559;BME280;59382;43.852;25.952;2023-03-31T00:03:16;101198.78;;;11.51;32.32
71559;BME280;59382;43.852;25.952;2023-03-31T00:05:46;101181.31;;;11.54;32.03
71559;BME280;59382;43.852;25.952;2023-03-31T00:08:13;101185.91;;;11.60;31.46
71559;BME280;59382;43.852;25.952;2023-03-31T00:10:43;101170.50;;;11.54;31.55
71559;BME280;59382;43.852;25.952;2023-03-31T00:13:10;101172.84;;;11.63;31.33
71559;BME280;59382;43.852;25.952;2023-03-31T00:15:36;101174.28;;;11.66;31.51
71559;BME280;59382;43.852;25.952;2023-03-31T00:18:02;101164.31;;;11.66;31.26
71559;BME280;59382;43.852;25.952;2023-03-31T00:20:28;101174.69;;;11.69;31.66
71559;BME280;59382;43.852;25.952;2023-03-31T00:22:54;101175.75;;;11.68;31.31
71559;BME280;59382;43.852;25.952;2023-03-31T00:25:21;101167.25;;;11.65;31.50
71559;BME280;59382;43.852;25.952;2023-03-31T00:27:47;101159.72;;;11.67;31.56
71559;BME280;59382;43.852;25.952;2023-03-31T00:30:15;101145.16;;;11.68;31.52
71559;BME280;59382;43.852;25.952;2023-03-31T00:32:41;101143.13;;;11.63;31.54
71559;BME280;59382;43.852;25.952;2023-03-31T00:35:07;101137.72;;;11.63;31.95
71559;BME280;59382;43.852;25.952;2023-03-31T00:37:33;101131.88;;;11.66;31.55
71559;BME280;59382;43.852;25.952;2023-03-31T00:39:58;101142.69;;;11.73;31.85
71559;BME280;59382;43.852;25.952;2023-03-31T00:42:24;101131.03;;;11.66;31.79
71559;BME280;59382;43.852;25.952;2023-03-31T00:45:27;101146.00;;;11.75;31.94
71559;BME280;59382;43.852;25.952;2023-03-31T00:48:01;101146.00;;;11.75;32.47
71559;BME280;59382;43.852;25.952;2023-03-31T00:50:32;101141.84;;;11.72;32.24
71559;BME280;59382;43.852;25.952;2023-03-31T00:53:11;101143.94;;;11.70;32.67
71559;BME280;59382;43.852;25.952;2023-03-31T00:55:52;101126.06;;;11.63;32.78
71559;BME280;59382;43.852;25.952;2023-03-31T00:58:20;101121.50;;;11.63;32.89
71559;BME280;59382;43.852;25.952;2023-03-31T01:00:47;101132.28;;;11.70;32.90
71559;BME280;59382;43.852;25.952;2023-03-31T01:03:13;101108.13;;;11.55;33.11
71559;BME280;59382;43.852;25.952;2023-03-31T01:05:46;101131.88;;;11.73;32.96
71559;BME280;59382;43.852;25.952;2023-03-31T01:08:15;101123.53;;;11.68;33.37
71559;BME280;59382;43.852;25.952;2023-03-31T01:10:45;101117.75;;;11.64;33.50
71559;BME280;59382;43.852;25.952;2023-03-31T01:13:12;101114.41;;;11.62;33.68
71559;BME280;59382;43.852;25.952;2023-03-31T01:15:41;101101.31;;;11.66;33.73
71559;BME280;59382;43.852;25.952;2023-03-31T01:18:07;101115.00;;;11.71;33.85
71559;BME280;59382;43.852;25.952;2023-03-31T01:46:31;101090.69;;;11.77;33.41
71559;BME280;59382;43.852;25.952;2023-03-31T01:49:23;101063.47;;;11.66;33.86
71559;BME280;59382;43.852;25.952;2023-03-31T01:54:34;101082.78;;;11.76;34.08
71559;BME280;59382;43.852;25.952;2023-03-31T01:59:51;101071.75;;;11.71;34.36
71559;BME280;59382;43.852;25.952;2023-03-31T02:04:57;101062.63;;;11.59;34.51
71559;BME280;59382;43.852;25.952;2023-03-31T02:07:38;101059.28;;;11.57;34.57
71559;BME280;59382;43.852;25.952;2023-03-31T02:10:08;101064.94;;;11.62;33.82
71559;BME280;59382;43.852;25.952;2023-03-31T02:12:37;101072.81;;;11.70;33.80
71559;BME280;59382;43.852;25.952;2023-03-31T02:15:06;101074.88;;;11.68;33.21
71559;BME280;59382;43.852;25.952;2023-03-31T02:17:34;101072.81;;;11.70;32.97
71559;BME280;59382;43.852;25.952;2023-03-31T02:20:07;101065.31;;;11.59;32.77
71559;BME280;59382;43.852;25.952;2023-03-31T02:22:38;101073.22;;;11.60;32.92
71559;BME280;59382;43.852;25.952;2023-03-31T02:25:07;101068.63;;;11.61;32.78
71559;BME280;59382;43.852;25.952;2023-03-31T02:27:37;101062.03;;;11.63;32.19
71559;BME280;59382;43.852;25.952;2023-03-31T02:30:05;101059.31;;;11.63;32.53
71559;BME280;59382;43.852;25.952;2023-03-31T02:32:39;101056.81;;;11.62;32.32
71559;BME280;59382;43.852;25.952;2023-03-31T02:35:08;101047.00;;;11.61;32.17
71559;BME280;59382;43.852;25.952;2023-03-31T02:37:34;101036.66;;;11.64;31.85
71559;BME280;59382;43.852;25.952;2023-03-31T02:40:05;101039.97;;;11.66;32.18
71559;BME280;59382;43.852;25.952;2023-03-31T02:42:36;101028.31;;;11.53;31.73
71559;BME280;59382;43.852;25.952;2023-03-31T02:45:04;101032.47;;;11.55;32.08
71559;BME280;59382;43.852;25.952;2023-03-31T02:47:30;101043.91;;;11.64;31.99
71559;BME280;59382;43.852;25.952;2023-03-31T02:49:58;101049.09;;;11.65;32.05
71559;BME280;59382;43.852;25.952;2023-03-31T02:58:13;101050.75;;;11.53;31.43
71559;BME280;59382;43.852;25.952;2023-03-31T03:01:14;101042.03;;;11.38;32.07
71559;BME280;59382;43.852;25.952;2023-03-31T03:03:57;101049.50;;;11.43;32.12
71559;BME280;59382;43.852;25.952;2023-03-31T03:06:41;101060.13;;;11.38;32.34
71559;BME280;59382;43.852;25.952;2023-03-31T03:14:49;101059.69;;;11.02;32.68
71559;BME280;59382;43.852;25.952;2023-03-31T03:17:26;101055.09;;;10.96;33.11
71559;BME280;59382;43.852;25.952;2023-03-31T03:19:55;101064.84;;;10.97;33.15
71559;BME280;59382;43.852;25.952;2023-03-31T03:22:22;101064.06;;;10.96;33.13
71559;BME280;59382;43.852;25.952;2023-03-31T03:24:47;101043.25;;;10.84;33.37
71559;BME280;59382;43.852;25.952;2023-03-31T03:27:13;101063.22;;;11.02;33.46
71559;BME280;59382;43.852;25.952;2023-03-31T03:29:38;101065.72;;;11.04;33.11
71559;BME280;59382;43.852;25.952;2023-03-31T03:32:04;101054.25;;;10.95;33.41
71559;BME280;59382;43.852;25.952;2023-03-31T03:34:29;101071.13;;;11.04;33.22
71559;BME280;59382;43.852;25.952;2023-03-31T03:36:55;101067.75;;;10.95;33.55
71559;BME280;59382;43.852;25.952;2023-03-31T03:39:20;101076.91;;;10.94;33.67
71559;BME280;59382;43.852;25.952;2023-03-31T03:41:46;101072.75;;;10.85;33.90
71559;BME280;59382;43.852;25.952;2023-03-31T03:44:11;101076.03;;;10.81;34.43
71559;BME280;59382;43.852;25.952;2023-03-31T03:46:37;101060.66;;;10.75;34.12
71559;BME280;59382;43.852;25.952;2023-03-31T03:49:02;101064.81;;;10.77;34.40
71559;BME280;59382;43.852;25.952;2023-03-31T03:51:28;101076.69;;;10.83;34.48
71559;BME280;59382;43.852;25.952;2023-03-31T03:53:53;101090.19;;;10.83;34.55
71559;BME280;59382;43.852;25.952;2023-03-31T03:56:19;101086.00;;;10.74;34.75
71559;BME280;59382;43.852;25.952;2023-03-31T03:58:46;101094.53;;;10.84;35.15
71559;BME280;59382;43.852;25.952;2023-03-31T04:01:11;101083.91;;;10.76;35.44
71559;BME280;59382;43.852;25.952;2023-03-31T04:03:38;101098.25;;;10.76;35.53
71559;BME280;59382;43.852;25.952;2023-03-31T04:06:04;101104.66;;;10.69;35.92
71559;BME280;59382;43.852;25.952;2023-03-31T04:08:29;101097.81;;;10.66;36.04
71559;BME280;59382;43.852;25.952;2023-03-31T04:10:55;101071.41;;;10.49;36.53
71559;BME280;59382;43.852;25.952;2023-03-31T04:13:20;101067.25;;;10.53;36.70
71559;BME280;59382;43.852;25.952;2023-03-31T04:15:46;101077.59;;;10.49;36.96
71559;BME280;59382;43.852;25.952;2023-03-31T04:18:11;101094.88;;;10.55;37.38
71559;BME280;59382;43.852;25.952;2023-03-31T04:20:53;101095.03;;;10.47;38.30
71559;BME280;59382;43.852;25.952;2023-03-31T04:23:34;101085.06;;;10.41;37.99
71559;BME280;59382;43.852;25.952;2023-03-31T04:26:08;101098.13;;;10.44;38.36
71559;BME280;59382;43.852;25.952;2023-03-31T04:28:35;101091.50;;;10.40;38.76
71559;BME280;59382;43.852;25.952;2023-03-31T04:31:04;101084.75;;;10.16;40.06
71559;BME280;59382;43.852;25.952;2023-03-31T04:33:33;101076.13;;;10.06;40.00
71559;BME280;59382;43.852;25.952;2023-03-31T04:36:04;101106.91;;;10.12;40.58
71559;BME280;59382;43.852;25.952;2023-03-31T04:38:34;101105.63;;;10.08;40.27
71559;BME280;59382;43.852;25.952;2023-03-31T04:41:00;101091.94;;;10.09;40.43
71559;BME280;59382;43.852;25.952;2023-03-31T04:43:25;101088.22;;;10.10;40.07
71559;BME280;59382;43.852;25.952;2023-03-31T04:45:51;101091.19;;;10.22;40.08
71559;BME280;59382;43.852;25.952;2023-03-31T04:48:16;101077.88;;;10.14;40.07
71559;BME280;59382;43.852;25.952;2023-03-31T04:50:42;101092.84;;;10.23;40.16
71559;BME280;59382;43.852;25.952;2023-03-31T04:53:07;101073.03;;;10.02;40.86
71559;BME280;59382;43.852;25.952;2023-03-31T04:55:33;101084.81;;;10.01;41.22
71559;BME280;59382;43.852;25.952;2023-03-31T04:57:59;101077.69;;;9.87;41.21
71559;BME280;59382;43.852;25.952;2023-03-31T05:00:25;101079.34;;;9.88;41.35
71559;BME280;59382;43.852;25.952;2023-03-31T05:02:51;101083.16;;;10.00;41.13
71559;BME280;59382;43.852;25.952;2023-03-31T05:05:16;101065.72;;;9.96;41.08
71559;BME280;59382;43.852;25.952;2023-03-31T05:07:42;101062.84;;;10.04;40.95
71559;BME280;59382;43.852;25.952;2023-03-31T05:10:08;101075.00;;;10.22;41.08
71559;BME280;59382;43.852;25.952;2023-03-31T05:12:35;101064.63;;;10.19;41.55
71559;BME280;59382;43.852;25.952;2023-03-31T05:15:02;101081.84;;;10.24;41.64
71559;BME280;59382;43.852;25.952;2023-03-31T05:17:30;101068.78;;;10.21;41.94
71559;BME280;59382;43.852;25.952;2023-03-31T05:19:56;101059.63;;;10.16;41.92
71559;BME280;59382;43.852;25.952;2023-03-31T05:22:22;101067.56;;;10.24;42.52
71559;BME280;59382;43.852;25.952;2023-03-31T05:24:48;101057.59;;;10.24;42.41
71559;BME280;59382;43.852;25.952;2023-03-31T05:27:14;101071.31;;;10.36;42.31
71559;BME280;59382;43.852;25.952;2023-03-31T05:29:40;101046.41;;;10.27;42.40
71559;BME280;59382;43.852;25.952;2023-03-31T05:32:05;101058.06;;;10.41;42.45
71559;BME280;59382;43.852;25.952;2023-03-31T05:34:31;101062.03;;;10.45;42.46
71559;BME280;59382;43.852;25.952;2023-03-31T05:36:56;101061.81;;;10.40;43.13
71559;BME280;59382;43.852;25.952;2023-03-31T05:39:23;101068.00;;;10.34;43.82
71559;BME280;59382;43.852;25.952;2023-03-31T05:41:48;101068.81;;;10.34;44.31
71559;BME280;59382;43.852;25.952;2023-03-31T05:44:14;101049.69;;;10.23;44.75
71559;BME280;59382;43.852;25.952;2023-03-31T05:46:40;101058.03;;;10.28;44.68
71559;BME280;59382;43.852;25.952;2023-03-31T05:49:06;101065.13;;;10.35;45.27
71559;BME280;59382;43.852;25.952;2023-03-31T05:51:33;101066.31;;;10.33;45.91
71559;BME280;59382;43.852;25.952;2023-03-31T05:53:59;101058.22;;;10.26;46.45
71559;BME280;59382;43.852;25.952;2023-03-31T05:56:24;101050.91;;;10.14;46.93
71559;BME280;59382;43.852;25.952;2023-03-31T05:58:52;101061.53;;;10.22;46.82
71559;BME280;59382;43.852;25.952;2023-03-31T06:01:17;101057.19;;;10.21;47.14
71559;BME280;59382;43.852;25.952;2023-03-31T06:03:48;101048.88;;;10.22;47.38
71559;BME280;59382;43.852;25.952;2023-03-31T06:06:14;101041.41;;;10.18;47.28
71559;BME280;59382;43.852;25.952;2023-03-31T06:08:44;101053.25;;;10.30;47.66
71559;BME280;59382;43.852;25.952;2023-03-31T06:11:13;101057.84;;;10.36;47.74
71559;BME280;59382;43.852;25.952;2023-03-31T06:13:40;101052.22;;;10.31;48.34
71559;BME280;59382;43.852;25.952;2023-03-31T06:16:06;101044.09;;;10.18;49.74
71559;BME280;59382;43.852;25.952;2023-03-31T06:18:33;101047.19;;;10.15;49.43
71559;BME280;59382;43.852;25.952;2023-03-31T06:20:59;101038.06;;;10.16;48.86
71559;BME280;59382;43.852;25.952;2023-03-31T06:23:25;101024.28;;;10.04;49.49
71559;BME280;59382;43.852;25.952;2023-03-31T06:25:51;101038.00;;;10.09;49.82
71559;BME280;59382;43.852;25.952;2023-03-31T06:28:18;101035.03;;;9.97;51.54
71559;BME280;59382;43.852;25.952;2023-03-31T06:30:43;101044.94;;;9.90;51.93
71559;BME280;59382;43.852;25.952;2023-03-31T06:33:09;101025.13;;;9.70;52.82
71559;BME280;59382;43.852;25.952;2023-03-31T06:35:39;101039.50;;;9.77;52.66
71559;BME280;59382;43.852;25.952;2023-03-31T06:38:07;101035.75;;;9.78;52.05
71559;BME280;59382;43.852;25.952;2023-03-31T06:40:35;101034.97;;;9.84;52.50
71559;BME280;59382;43.852;25.952;2023-03-31T06:43:01;101033.91;;;9.85;52.70
71559;BME280;59382;43.852;25.952;2023-03-31T06:45:28;101030.38;;;9.85;52.58
71559;BME280;59382;43.852;25.952;2023-03-31T06:47:57;101021.69;;;9.89;52.59
71559;BME280;59382;43.852;25.952;2023-03-31T06:50:39;101021.09;;;9.87;53.94
71559;BME280;59382;43.852;25.952;2023-03-31T06:53:15;101014.22;;;9.85;53.35
71559;BME280;59382;43.852;25.952;2023-03-31T06:55:42;101020.50;;;9.92;53.45
71559;BME280;59382;43.852;25.952;2023-03-31T06:58:09;101008.00;;;9.84;53.74
71559;BME280;59382;43.852;25.952;2023-03-31T07:00:36;101006.31;;;9.83;53.80
71559;BME280;59382;43.852;25.952;2023-03-31T07:03:05;100999.31;;;9.89;53.99
71559;BME280;59382;43.852;25.952;2023-03-31T07:05:32;101006.63;;;10.01;53.88
71559;BME280;59382;43.852;25.952;2023-03-31T07:07:59;100996.88;;;10.00;54.05
71559;BME280;59382;43.852;25.952;2023-03-31T07:10:29;100988.41;;;10.03;53.98
71559;BME280;59382;43.852;25.952;2023-03-31T07:12:55;100987.03;;;10.14;53.93
71559;BME280;59382;43.852;25.952;2023-03-31T07:15:21;100961.22;;;10.05;54.06
71559;BME280;59382;43.852;25.952;2023-03-31T07:17:49;100968.34;;;10.13;54.27
71559;BME280;59382;43.852;25.952;2023-03-31T07:20:17;100994.94;;;10.29;54.36
71559;BME280;59382;43.852;25.952;2023-03-31T07:22:47;100962.19;;;10.25;53.91
71559;BME280;59382;43.852;25.952;2023-03-31T07:25:16;100984.19;;;10.42;54.22
71559;BME280;59382;43.852;25.952;2023-03-31T07:27:46;100966.72;;;10.31;54.34
71559;BME280;59382;43.852;25.952;2023-03-31T07:30:16;100975.91;;;10.37;54.81
71559;BME280;59382;43.852;25.952;2023-03-31T07:32:44;100964.88;;;10.32;54.75
71559;BME280;59382;43.852;25.952;2023-03-31T07:35:11;100963.41;;;10.36;54.89
71559;BME280;59382;43.852;25.952;2023-03-31T07:37:38;100960.97;;;10.41;54.89
71559;BME280;59382;43.852;25.952;2023-03-31T07:40:04;100946.00;;;10.25;56.71
71559;BME280;59382;43.852;25.952;2023-03-31T07:42:32;100951.81;;;10.35;56.41
71559;BME280;59382;43.852;25.952;2023-03-31T07:44:58;100954.72;;;10.40;55.73
71559;BME280;59382;43.852;25.952;2023-03-31T07:47:27;100953.94;;;10.53;55.74
71559;BME280;59382;43.852;25.952;2023-03-31T07:49:56;100932.53;;;10.51;56.99
71559;BME280;59382;43.852;25.952;2023-03-31T07:52:23;100936.69;;;10.54;56.03
71559;BME280;59382;43.852;25.952;2023-03-31T07:54:49;100922.78;;;10.50;57.90
71559;BME280;59382;43.852;25.952;2023-03-31T07:57:17;100909.50;;;10.55;56.75
71559;BME280;59382;43.852;25.952;2023-03-31T07:59:44;100897.50;;;10.58;56.78
71559;BME280;59382;43.852;25.952;2023-03-31T08:02:12;100902.25;;;10.82;56.75
71559;BME280;59382;43.852;25.952;2023-03-31T08:04:38;100909.50;;;10.88;57.29
71559;BME280;59382;43.852;25.952;2023-03-31T08:07:07;100886.44;;;10.98;56.75
71559;BME280;59382;43.852;25.952;2023-03-31T08:09:33;100898.22;;;11.23;57.18
71559;BME280;59382;43.852;25.952;2023-03-31T08:12:01;100884.72;;;11.30;57.43
71559;BME280;59382;43.852;25.952;2023-03-31T08:14:31;100887.38;;;11.56;57.50
71559;BME280;59382;43.852;25.952;2023-03-31T08:16:58;100878.53;;;11.80;57.41
71559;BME280;59382;43.852;25.952;2023-03-31T08:19:25;100868.81;;;12.10;57.05
71559;BME280;59382;43.852;25.952;2023-03-31T08:21:54;100861.84;;;12.27;57.05
71559;BME280;59382;43.852;25.952;2023-03-31T08:24:21;100857.38;;;12.39;56.91
71559;BME280;59382;43.852;25.952;2023-03-31T08:26:47;100863.00;;;12.62;56.85
71559;BME280;59382;43.852;25.952;2023-03-31T08:29:13;100849.97;;;12.77;56.21
71559;BME280;59382;43.852;25.952;2023-03-31T08:31:38;100853.63;;;12.89;56.68
71559;BME280;59382;43.852;25.952;2023-03-31T08:34:04;100851.06;;;12.94;56.55
71559;BME280;59382;43.852;25.952;2023-03-31T08:36:30;100851.25;;;12.99;57.28
71559;BME280;59382;43.852;25.952;2023-03-31T08:38:56;100828.09;;;13.03;57.34
71559;BME280;59382;43.852;25.952;2023-03-31T08:44:15;100836.59;;;13.43;56.54
71559;BME280;59382;43.852;25.952;2023-03-31T08:46:45;100822.53;;;13.52;56.46
71559;BME280;59382;43.852;25.952;2023-03-31T08:49:17;100820.22;;;13.67;56.94
71559;BME280;59382;43.852;25.952;2023-03-31T08:51:49;100813.34;;;13.83;57.25
71559;BME280;59382;43.852;25.952;2023-03-31T08:54:29;100808.09;;;14.00;57.10
71559;BME280;59382;43.852;25.952;2023-03-31T08:56:56;100795.00;;;14.08;56.64
71559;BME280;59382;43.852;25.952;2023-03-31T08:59:30;100789.81;;;14.07;57.58
71559;BME280;59382;43.852;25.952;2023-03-31T09:05:03;100778.16;;;14.18;57.36
71559;BME280;59382;43.852;25.952;2023-03-31T09:07:55;100786.97;;;14.43;56.96
71559;BME280;59382;43.852;25.952;2023-03-31T09:18:38;100764.88;;;14.85;55.99
71559;BME280;59382;43.852;25.952;2023-03-31T09:26:39;100766.31;;;14.88;55.15
71559;BME280;59382;43.852;25.952;2023-03-31T09:29:13;100736.50;;;15.04;55.60
71559;BME280;59382;43.852;25.952;2023-03-31T09:31:42;100748.63;;;15.25;55.31
71559;BME280;59382;43.852;25.952;2023-03-31T09:34:16;100735.88;;;15.37;54.85
71559;BME280;59382;43.852;25.952;2023-03-31T09:36:45;100709.34;;;15.44;54.53
71559;BME280;59382;43.852;25.952;2023-03-31T09:39:13;100725.34;;;15.57;54.05
71559;BME280;59382;43.852;25.952;2023-03-31T09:41:43;100726.69;;;15.54;53.91
71559;BME280;59382;43.852;25.952;2023-03-31T09:46:58;100721.06;;;15.61;53.81
71559;BME280;59382;43.852;25.952;2023-03-31T09:49:27;100723.22;;;15.59;53.77
71559;BME280;59382;43.852;25.952;2023-03-31T09:52:31;100711.88;;;15.62;53.74
71559;BME280;59382;43.852;25.952;2023-03-31T09:54:59;100717.47;;;15.72;53.49
71559;BME280;59382;43.852;25.952;2023-03-31T09:57:32;100713.78;;;15.78;53.28
71559;BME280;59382;43.852;25.952;2023-03-31T10:02:39;100699.34;;;15.77;53.19
71559;BME280;59382;43.852;25.952;2023-03-31T10:05:25;100718.50;;;15.99;53.47
71559;BME280;59382;43.852;25.952;2023-03-31T10:08:11;100703.41;;;16.08;52.95
71559;BME280;59382;43.852;25.952;2023-03-31T10:10:43;100713.56;;;16.29;52.64
71559;BME280;59382;43.852;25.952;2023-03-31T10:13:14;100695.41;;;16.18;53.01
71559;BME280;59382;43.852;25.952;2023-03-31T10:15:40;100687.97;;;16.14;52.71
71559;BME280;59382;43.852;25.952;2023-03-31T10:18:15;100697.63;;;16.21;53.37
71559;BME280;59382;43.852;25.952;2023-03-31T10:20:49;100692.44;;;16.20;53.81
71559;BME280;59382;43.852;25.952;2023-03-31T10:23:28;100685.00;;;16.15;54.03
71559;BME280;59382;43.852;25.952;2023-03-31T10:25:54;100686.66;;;16.16;54.14
71559;BME280;59382;43.852;25.952;2023-03-31T10:28:21;100682.88;;;16.17;54.42
71559;BME280;59382;43.852;25.952;2023-03-31T10:30:49;100678.97;;;16.13;54.58
71559;BME280;59382;43.852;25.952;2023-03-31T10:33:18;100659.03;;;16.08;54.70
71559;BME280;59382;43.852;25.952;2023-03-31T10:35:47;100679.66;;;16.20;54.05
71559;BME280;59382;43.852;25.952;2023-03-31T10:38:22;100680.31;;;16.27;53.98
71559;BME280;59382;43.852;25.952;2023-03-31T10:40:56;100673.22;;;16.26;54.09
71559;BME280;59382;43.852;25.952;2023-03-31T10:43:39;100660.34;;;16.22;54.39
71559;BME280;59382;43.852;25.952;2023-03-31T10:46:06;100667.28;;;16.29;54.13
71559;BME280;59382;43.852;25.952;2023-03-31T10:48:34;100660.88;;;16.40;53.77
71559;BME280;59382;43.852;25.952;2023-03-31T10:51:26;100656.78;;;16.54;54.15
71559;BME280;59382;43.852;25.952;2023-03-31T10:53:54;100645.50;;;16.67;53.64
71559;BME280;59382;43.852;25.952;2023-03-31T10:56:41;100633.72;;;16.83;53.58
71559;BME280;59382;43.852;25.952;2023-03-31T10:59:21;100635.00;;;16.97;53.69
71559;BME280;59382;43.852;25.952;2023-03-31T11:07:19;100616.19;;;17.22;53.49
71559;BME280;59382;43.852;25.952;2023-03-31T11:10:07;100588.28;;;17.15;53.70
71559;BME280;59382;43.852;25.952;2023-03-31T11:12:46;100604.25;;;17.28;53.09
71559;BME280;59382;43.852;25.952;2023-03-31T11:15:28;100606.38;;;17.26;53.10
71559;BME280;59382;43.852;25.952;2023-03-31T11:26:00;100594.94;;;17.24;53.03
71559;BME280;59382;43.852;25.952;2023-03-31T11:28:33;100590.88;;;17.27;53.06
71559;BME280;59382;43.852;25.952;2023-03-31T11:41:57;100584.91;;;17.35;52.49
71559;BME280;59382;43.852;25.952;2023-03-31T11:44:28;100566.59;;;17.30;52.40
71559;BME280;59382;43.852;25.952;2023-03-31T11:47:06;100571.53;;;17.33;52.16
71559;BME280;59382;43.852;25.952;2023-03-31T11:49:40;100573.91;;;17.46;51.63
71559;BME280;59382;43.852;25.952;2023-03-31T11:52:18;100550.28;;;17.35;51.13
71559;BME280;59382;43.852;25.952;2023-03-31T11:54:55;100577.22;;;17.53;50.99
71559;BME280;59382;43.852;25.952;2023-03-31T11:57:32;100567.47;;;17.63;50.35
71559;BME280;59382;43.852;25.952;2023-03-31T12:00:10;100563.13;;;17.67;50.31
71559;BME280;59382;43.852;25.952;2023-03-31T12:05:26;100557.75;;;17.77;50.52
71559;BME280;59382;43.852;25.952;2023-03-31T12:08:05;100558.88;;;17.81;50.54
71559;BME280;59382;43.852;25.952;2023-03-31T12:10:35;100559.44;;;17.83;50.27
71559;BME280;59382;43.852;25.952;2023-03-31T12:13:04;100558.94;;;17.91;50.33
71559;BME280;59382;43.852;25.952;2023-03-31T12:15:36;100545.91;;;18.03;50.17
71559;BME280;59382;43.852;25.952;2023-03-31T12:18:23;100532.84;;;18.10;50.13
71559;BME280;59382;43.852;25.952;2023-03-31T12:20:59;100534.28;;;18.22;50.24
71559;BME280;59382;43.852;25.952;2023-03-31T12:23:34;100529.97;;;18.36;49.92
71559;BME280;59382;43.852;25.952;2023-03-31T12:28:34;100535.59;;;18.66;48.84
71559;BME280;59382;43.852;25.952;2023-03-31T12:31:04;100533.97;;;18.75;48.18
71559;BME280;59382;43.852;25.952;2023-03-31T12:33:35;100530.47;;;18.85;47.75
71559;BME280;59382;43.852;25.952;2023-03-31T12:39:06;100511.88;;;18.82;46.84
71559;BME280;59382;43.852;25.952;2023-03-31T12:55:22;100509.13;;;18.77;47.54
71559;BME280;59382;43.852;25.952;2023-03-31T13:08:55;100467.00;;;18.78;47.63
71559;BME280;59382;43.852;25.952;2023-03-31T13:11:43;100479.91;;;18.92;47.30
71559;BME280;59382;43.852;25.952;2023-03-31T13:14:21;100490.56;;;19.04;46.96
71559;BME280;59382;43.852;25.952;2023-03-31T13:16:48;100469.78;;;19.08;46.13
71559;BME280;59382;43.852;25.952;2023-03-31T13:19:30;100464.84;;;19.05;46.01
71559;BME280;59382;43.852;25.952;2023-03-31T13:21:58;100462.97;;;19.10;46.03
71559;BME280;59382;43.852;25.952;2023-03-31T13:24:24;100453.91;;;19.05;46.21
71559;BME280;59382;43.852;25.952;2023-03-31T13:26:52;100464.88;;;19.10;46.31
71559;BME280;59382;43.852;25.952;2023-03-31T13:29:37;100443.00;;;19.10;45.74
71559;BME280;59382;43.852;25.952;2023-03-31T13:34:34;100437.50;;;19.15;45.09
71559;BME280;59382;43.852;25.952;2023-03-31T13:48:23;100443.00;;;19.10;44.61
71559;BME280;59382;43.852;25.952;2023-03-31T13:58:49;100448.72;;;19.18;44.44
71559;BME280;59382;43.852;25.952;2023-03-31T14:09:27;100430.94;;;19.11;44.47
71559;BME280;59382;43.852;25.952;2023-03-31T14:11:53;100415.09;;;19.08;44.53
71559;BME280;59382;43.852;25.952;2023-03-31T14:14:20;100423.03;;;19.14;44.46
71559;BME280;59382;43.852;25.952;2023-03-31T14:16:50;100426.00;;;19.18;44.38
71559;BME280;59382;43.852;25.952;2023-03-31T14:33:31;100406.91;;;19.03;44.17
71559;BME280;59382;43.852;25.952;2023-03-31T14:38:51;100409.63;;;18.98;44.45
71559;BME280;59382;43.852;25.952;2023-03-31T14:41:20;100409.09;;;19.01;44.56
71559;BME280;59382;43.852;25.952;2023-03-31T14:43:54;100394.88;;;18.94;44.68
71559;BME280;59382;43.852;25.952;2023-03-31T14:46:21;100385.28;;;18.86;44.80
71559;BME280;59382;43.852;25.952;2023-03-31T14:48:48;100389.91;;;18.81;44.86
71559;BME280;59382;43.852;25.952;2023-03-31T14:51:37;100377.91;;;18.77;44.76
71559;BME280;59382;43.852;25.952;2023-03-31T14:54:01;100393.75;;;18.80;45.17
71559;BME280;59382;43.852;25.952;2023-03-31T14:56:32;100403.06;;;18.79;45.43
71559;BME280;59382;43.852;25.952;2023-03-31T14:59:00;100392.09;;;18.69;45.34
71559;BME280;59382;43.852;25.952;2023-03-31T15:01:32;100382.81;;;18.60;45.41
71559;BME280;59382;43.852;25.952;2023-03-31T15:04:11;100398.13;;;18.76;45.46
71559;BME280;59382;43.852;25.952;2023-03-31T15:06:39;100397.03;;;18.77;45.36
71559;BME280;59382;43.852;25.952;2023-03-31T15:09:06;100394.88;;;18.79;45.42
71559;BME280;59382;43.852;25.952;2023-03-31T15:11:37;100394.03;;;18.83;44.90
71559;BME280;59382;43.852;25.952;2023-03-31T15:14:03;100408.81;;;18.87;44.96
71559;BME280;59382;43.852;25.952;2023-03-31T15:16:44;100396.22;;;18.91;44.51
71559;BME280;59382;43.852;25.952;2023-03-31T15:19:17;100401.44;;;18.98;43.85
71559;BME280;59382;43.852;25.952;2023-03-31T15:21:44;100392.13;;;18.99;43.86
71559;BME280;59382;43.852;25.952;2023-03-31T15:24:13;100395.94;;;19.08;43.41
71559;BME280;59382;43.852;25.952;2023-03-31T15:26:46;100409.63;;;19.13;43.77
71559;BME280;59382;43.852;25.952;2023-03-31T15:29:17;100415.09;;;19.13;43.53
71559;BME280;59382;43.852;25.952;2023-03-31T15:31:43;100395.94;;;18.98;43.54
71559;BME280;59382;43.852;25.952;2023-03-31T15:34:28;100403.63;;;19.06;43.67
71559;BME280;59382;43.852;25.952;2023-03-31T15:36:55;100396.50;;;19.00;43.50
71559;BME280;59382;43.852;25.952;2023-03-31T15:39:26;100405.25;;;19.07;43.41
71559;BME280;59382;43.852;25.952;2023-03-31T15:41:53;100401.97;;;19.05;43.70
71559;BME280;59382;43.852;25.952;2023-03-31T15:47:26;100392.66;;;18.96;43.73
71559;BME280;59382;43.852;25.952;2023-03-31T15:49:57;100400.59;;;18.97;43.82
71559;BME280;59382;43.852;25.952;2023-03-31T15:52:29;100413.44;;;19.02;43.80